sensor_id;sensor_type;location;lat;lon;timestamp;temperature;humidity
65421;DHT22;52028;50.658;14.004;2022-08-19T00:01:20;24.31;65.33
65421;DHT22;52028;50.658;14.004;2022-08-19T00:03:46;24.16;65.83
65421;DHT22;52028;50.658;14.004;2022-08-19T00:06:11;24.10;65.94
65421;DHT22;52028;50.658;14.004;2022-08-19T00:08:37;24.03;66.03
65421;DHT22;52028;50.658;14.004;2022-08-19T00:11:03;23.98;66.30
65421;DHT22;52028;50.658;14.004;2022-08-19T00:13:28;23.96;66.33
65421;DHT22;52028;50.658;14.004;2022-08-19T00:15:57;23.98;66.17
65421;DHT22;52028;50.658;14.004;2022-08-19T00:18:24;23.99;66.02
65421;DHT22;52028;50.658;14.004;2022-08-19T00:20:49;24.01;65.97
65421;DHT22;52028;50.658;14.004;2022-08-19T00:23:14;24.08;65.83
65421;DHT22;52028;50.658;14.004;2022-08-19T00:25:41;24.01;65.88
65421;DHT22;52028;50.658;14.004;2022-08-19T00:28:07;23.95;66.13
65421;DHT22;52028;50.658;14.004;2022-08-19T00:30:32;23.92;66.20
65421;DHT22;52028;50.658;14.004;2022-08-19T00:32:58;23.78;66.79
65421;DHT22;52028;50.658;14.004;2022-08-19T00:35:24;23.71;67.10
65421;DHT22;52028;50.658;14.004;2022-08-19T00:37:50;23.61;67.58
65421;DHT22;52028;50.658;14.004;2022-08-19T00:40:17;23.54;67.72
65421;DHT22;52028;50.658;14.004;2022-08-19T00:42:45;23.47;68.13
65421;DHT22;52028;50.658;14.004;2022-08-19T00:45:16;23.49;68.12
65421;DHT22;52028;50.658;14.004;2022-08-19T00:47:43;23.46;68.21
65421;DHT22;52028;50.658;14.004;2022-08-19T00:50:10;23.44;68.22
65421;DHT22;52028;50.658;14.004;2022-08-19T00:52:38;23.41;68.41
65421;DHT22;52028;50.658;14.004;2022-08-19T00:55:07;23.39;68.46
65421;DHT22;52028;50.658;14.004;2022-08-19T00:57:40;23.41;68.38
65421;DHT22;52028;50.658;14.004;2022-08-19T01:00:13;23.39;68.47
65421;DHT22;52028;50.658;14.004;2022-08-19T01:02:41;23.36;68.67
65421;DHT22;52028;50.658;14.004;2022-08-19T01:05:11;23.33;68.89
65421;DHT22;52028;50.658;14.004;2022-08-19T01:07:38;23.40;68.71
65421;DHT22;52028;50.658;14.004;2022-08-19T01:10:07;23.41;68.65
65421;DHT22;52028;50.658;14.004;2022-08-19T01:12:33;23.46;68.42
65421;DHT22;52028;50.658;14.004;2022-08-19T01:14:59;23.50;68.17
65421;DHT22;52028;50.658;14.004;2022-08-19T01:17:25;23.58;67.91
65421;DHT22;52028;50.658;14.004;2022-08-19T01:19:51;23.71;67.57
65421;DHT22;52028;50.658;14.004;2022-08-19T01:24:48;23.78;67.46
65421;DHT22;52028;50.658;14.004;2022-08-19T01:27:14;23.92;67.02
65421;DHT22;52028;50.658;14.004;2022-08-19T01:29:42;23.88;67.19
65421;DHT22;52028;50.658;14.004;2022-08-19T01:32:11;23.79;67.48
65421;DHT22;52028;50.658;14.004;2022-08-19T01:34:37;23.81;67.34
65421;DHT22;52028;50.658;14.004;2022-08-19T01:37:08;23.89;67.41
65421;DHT22;52028;50.658;14.004;2022-08-19T01:39:36;23.77;67.88
65421;DHT22;52028;50.658;14.004;2022-08-19T01:42:02;23.58;68.49
65421;DHT22;52028;50.658;14.004;2022-08-19T01:44:28;23.62;68.44
65421;DHT22;52028;50.658;14.004;2022-08-19T01:46:54;23.71;68.09
65421;DHT22;52028;50.658;14.004;2022-08-19T01:49:22;23.71;68.23
65421;DHT22;52028;50.658;14.004;2022-08-19T01:51:48;23.77;68.44
65421;DHT22;52028;50.658;14.004;2022-08-19T01:54:16;23.71;68.85
65421;DHT22;52028;50.658;14.004;2022-08-19T01:56:41;23.74;69.05
65421;DHT22;52028;50.658;14.004;2022-08-19T01:59:12;23.58;69.58
65421;DHT22;52028;50.658;14.004;2022-08-19T02:01:39;23.54;69.80
65421;DHT22;52028;50.658;14.004;2022-08-19T02:04:04;23.49;70.16
65421;DHT22;52028;50.658;14.004;2022-08-19T02:06:31;23.37;70.62
65421;DHT22;52028;50.658;14.004;2022-08-19T02:08:57;23.30;70.89
65421;DHT22;52028;50.658;14.004;2022-08-19T02:11:28;23.27;71.35
65421;DHT22;52028;50.658;14.004;2022-08-19T02:13:55;23.05;72.32
65421;DHT22;52028;50.658;14.004;2022-08-19T02:16:20;22.99;72.69
65421;DHT22;52028;50.658;14.004;2022-08-19T02:18:46;23.03;72.70
65421;DHT22;52028;50.658;14.004;2022-08-19T02:21:18;23.07;72.52
65421;DHT22;52028;50.658;14.004;2022-08-19T02:23:44;23.03;72.83
65421;DHT22;52028;50.658;14.004;2022-08-19T02:26:10;22.99;72.94
65421;DHT22;52028;50.658;14.004;2022-08-19T02:28:35;22.95;73.12
65421;DHT22;52028;50.658;14.004;2022-08-19T02:31:02;23.05;72.73
65421;DHT22;52028;50.658;14.004;2022-08-19T02:33:28;23.06;72.78
65421;DHT22;52028;50.658;14.004;2022-08-19T02:35:54;23.05;72.47
65421;DHT22;52028;50.658;14.004;2022-08-19T02:38:19;23.12;72.38
65421;DHT22;52028;50.658;14.004;2022-08-19T02:40:59;23.03;72.84
65421;DHT22;52028;50.658;14.004;2022-08-19T02:43:25;22.85;73.58
65421;DHT22;52028;50.658;14.004;2022-08-19T02:45:51;22.94;73.71
65421;DHT22;52028;50.658;14.004;2022-08-19T02:48:20;22.92;73.91
65421;DHT22;52028;50.658;14.004;2022-08-19T02:50:47;22.87;73.96
65421;DHT22;52028;50.658;14.004;2022-08-19T02:53:16;22.91;74.04
65421;DHT22;52028;50.658;14.004;2022-08-19T02:55:45;22.81;74.61
65421;DHT22;52028;50.658;14.004;2022-08-19T02:58:12;22.69;74.90
65421;DHT22;52028;50.658;14.004;2022-08-19T03:00:43;22.60;75.36
65421;DHT22;52028;50.658;14.004;2022-08-19T03:03:08;22.60;75.41
65421;DHT22;52028;50.658;14.004;2022-08-19T03:05:34;22.65;75.30
65421;DHT22;52028;50.658;14.004;2022-08-19T03:07:59;22.65;75.23
65421;DHT22;52028;50.658;14.004;2022-08-19T03:10:24;22.67;75.35
65421;DHT22;52028;50.658;14.004;2022-08-19T03:12:50;22.69;75.32
65421;DHT22;52028;50.658;14.004;2022-08-19T03:15:15;22.71;75.29
65421;DHT22;52028;50.658;14.004;2022-08-19T03:17:40;22.67;75.43
65421;DHT22;52028;50.658;14.004;2022-08-19T03:20:06;22.71;75.24
65421;DHT22;52028;50.658;14.004;2022-08-19T03:22:32;22.79;75.09
65421;DHT22;52028;50.658;14.004;2022-08-19T03:24:57;22.82;75.18
65421;DHT22;52028;50.658;14.004;2022-08-19T03:27:24;22.76;75.25
65421;DHT22;52028;50.658;14.004;2022-08-19T03:29:49;22.76;75.30
65421;DHT22;52028;50.658;14.004;2022-08-19T03:32:16;22.81;75.15
65421;DHT22;52028;50.658;14.004;2022-08-19T03:34:41;22.82;75.14
65421;DHT22;52028;50.658;14.004;2022-08-19T03:37:09;22.89;74.89
65421;DHT22;52028;50.658;14.004;2022-08-19T03:39:36;23.00;74.53
65421;DHT22;52028;50.658;14.004;2022-08-19T03:42:02;23.00;74.30
65421;DHT22;52028;50.658;14.004;2022-08-19T03:44:29;22.98;74.40
65421;DHT22;52028;50.658;14.004;2022-08-19T03:46:57;22.99;74.37
65421;DHT22;52028;50.658;14.004;2022-08-19T03:49:25;22.98;74.51
65421;DHT22;52028;50.658;14.004;2022-08-19T03:51:51;22.84;75.01
65421;DHT22;52028;50.658;14.004;2022-08-19T03:54:19;22.75;75.09
65421;DHT22;52028;50.658;14.004;2022-08-19T03:56:46;22.71;75.59
65421;DHT22;52028;50.658;14.004;2022-08-19T03:59:16;22.72;75.57
65421;DHT22;52028;50.658;14.004;2022-08-19T04:01:42;22.71;75.56
65421;DHT22;52028;50.658;14.004;2022-08-19T04:04:07;22.78;75.23
65421;DHT22;52028;50.658;14.004;2022-08-19T04:06:35;22.78;75.24
65421;DHT22;52028;50.658;14.004;2022-08-19T04:09:04;22.75;75.27
65421;DHT22;52028;50.658;14.004;2022-08-19T04:11:34;22.73;75.31
65421;DHT22;52028;50.658;14.004;2022-08-19T04:14:00;22.72;75.28
65421;DHT22;52028;50.658;14.004;2022-08-19T04:16:27;22.82;75.10
65421;DHT22;52028;50.658;14.004;2022-08-19T04:18:56;22.84;74.87
65421;DHT22;52028;50.658;14.004;2022-08-19T04:21:26;22.82;74.91
65421;DHT22;52028;50.658;14.004;2022-08-19T04:23:52;22.71;75.34
65421;DHT22;52028;50.658;14.004;2022-08-19T04:26:21;22.73;75.26
65421;DHT22;52028;50.658;14.004;2022-08-19T04:28:47;22.82;75.00
65421;DHT22;52028;50.658;14.004;2022-08-19T04:31:15;22.76;75.12
65421;DHT22;52028;50.658;14.004;2022-08-19T04:33:41;22.62;75.48
65421;DHT22;52028;50.658;14.004;2022-08-19T04:36:06;22.57;75.73
65421;DHT22;52028;50.658;14.004;2022-08-19T04:38:32;22.58;75.85
65421;DHT22;52028;50.658;14.004;2022-08-19T04:40:59;22.54;76.17
65421;DHT22;52028;50.658;14.004;2022-08-19T04:43:45;22.54;76.21
65421;DHT22;52028;50.658;14.004;2022-08-19T04:46:14;22.69;75.84
65421;DHT22;52028;50.658;14.004;2022-08-19T04:48:39;22.69;75.88
65421;DHT22;52028;50.658;14.004;2022-08-19T04:51:11;22.84;75.63
65421;DHT22;52028;50.658;14.004;2022-08-19T04:53:40;22.89;75.38
65421;DHT22;52028;50.658;14.004;2022-08-19T04:56:17;22.95;75.15
65421;DHT22;52028;50.658;14.004;2022-08-19T04:58:44;22.96;75.14
65421;DHT22;52028;50.658;14.004;2022-08-19T05:01:17;23.00;74.89
65421;DHT22;52028;50.658;14.004;2022-08-19T05:03:42;23.07;74.68
65421;DHT22;52028;50.658;14.004;2022-08-19T05:06:11;23.12;74.58
65421;DHT22;52028;50.658;14.004;2022-08-19T05:08:38;23.13;74.50
65421;DHT22;52028;50.658;14.004;2022-08-19T05:11:09;23.30;73.85
65421;DHT22;52028;50.658;14.004;2022-08-19T05:13:36;23.40;73.44
65421;DHT22;52028;50.658;14.004;2022-08-19T05:16:02;23.41;73.33
65421;DHT22;52028;50.658;14.004;2022-08-19T05:18:28;23.34;73.43
65421;DHT22;52028;50.658;14.004;2022-08-19T05:21:18;23.23;73.84
65421;DHT22;52028;50.658;14.004;2022-08-19T05:24:04;23.30;73.81
65421;DHT22;52028;50.658;14.004;2022-08-19T05:26:34;23.13;74.41
65421;DHT22;52028;50.658;14.004;2022-08-19T05:29:00;23.19;74.52
65421;DHT22;52028;50.658;14.004;2022-08-19T05:31:25;23.09;74.85
65421;DHT22;52028;50.658;14.004;2022-08-19T05:33:50;23.00;74.97
65421;DHT22;52028;50.658;14.004;2022-08-19T05:36:15;22.94;75.33
65421;DHT22;52028;50.658;14.004;2022-08-19T05:38:41;22.88;75.54
65421;DHT22;52028;50.658;14.004;2022-08-19T05:41:11;22.98;75.21
65421;DHT22;52028;50.658;14.004;2022-08-19T05:43:37;23.00;75.15
65421;DHT22;52028;50.658;14.004;2022-08-19T05:46:06;22.96;75.17
65421;DHT22;52028;50.658;14.004;2022-08-19T05:48:32;23.09;74.66
65421;DHT22;52028;50.658;14.004;2022-08-19T05:51:03;23.02;74.93
65421;DHT22;52028;50.658;14.004;2022-08-19T05:53:30;23.10;74.73
65421;DHT22;52028;50.658;14.004;2022-08-19T05:55:55;23.02;74.90
65421;DHT22;52028;50.658;14.004;2022-08-19T05:58:20;22.98;74.94
65421;DHT22;52028;50.658;14.004;2022-08-19T06:00:46;22.89;75.37
65421;DHT22;52028;50.658;14.004;2022-08-19T06:03:11;23.00;74.96
65421;DHT22;52028;50.658;14.004;2022-08-19T06:05:36;23.02;74.82
65421;DHT22;52028;50.658;14.004;2022-08-19T06:08:02;23.06;74.72
65421;DHT22;52028;50.658;14.004;2022-08-19T06:10:28;23.03;74.80
65421;DHT22;52028;50.658;14.004;2022-08-19T06:12:53;23.07;74.73
65421;DHT22;52028;50.658;14.004;2022-08-19T06:15:19;22.98;74.97
65421;DHT22;52028;50.658;14.004;2022-08-19T06:17:45;22.95;75.21
65421;DHT22;52028;50.658;14.004;2022-08-19T06:20:12;22.96;75.07
65421;DHT22;52028;50.658;14.004;2022-08-19T06:22:43;22.98;75.03
65421;DHT22;52028;50.658;14.004;2022-08-19T06:25:09;22.89;75.16
65421;DHT22;52028;50.658;14.004;2022-08-19T06:27:35;22.94;75.09
65421;DHT22;52028;50.658;14.004;2022-08-19T06:30:03;23.03;74.89
65421;DHT22;52028;50.658;14.004;2022-08-19T06:32:29;23.12;74.33
65421;DHT22;52028;50.658;14.004;2022-08-19T06:34:54;23.16;74.22
65421;DHT22;52028;50.658;14.004;2022-08-19T06:37:20;23.26;74.08
65421;DHT22;52028;50.658;14.004;2022-08-19T06:39:47;23.28;73.78
65421;DHT22;52028;50.658;14.004;2022-08-19T06:42:13;23.34;73.58
65421;DHT22;52028;50.658;14.004;2022-08-19T06:44:42;23.40;73.51
65421;DHT22;52028;50.658;14.004;2022-08-19T06:47:09;23.47;72.99
65421;DHT22;52028;50.658;14.004;2022-08-19T06:49:35;23.49;72.93
65421;DHT22;52028;50.658;14.004;2022-08-19T06:52:01;23.43;72.87
65421;DHT22;52028;50.658;14.004;2022-08-19T06:54:27;23.53;72.77
65421;DHT22;52028;50.658;14.004;2022-08-19T06:56:54;23.46;72.77
65421;DHT22;52028;50.658;14.004;2022-08-19T06:59:23;23.61;72.52
65421;DHT22;52028;50.658;14.004;2022-08-19T07:01:54;23.68;72.19
65421;DHT22;52028;50.658;14.004;2022-08-19T07:04:25;23.78;71.80
65421;DHT22;52028;50.658;14.004;2022-08-19T07:07:10;23.79;71.68
65421;DHT22;52028;50.658;14.004;2022-08-19T07:09:40;23.88;71.31
65421;DHT22;52028;50.658;14.004;2022-08-19T07:12:08;23.89;71.48
65421;DHT22;52028;50.658;14.004;2022-08-19T07:14:34;23.81;71.54
65421;DHT22;52028;50.658;14.004;2022-08-19T07:17:08;23.89;71.06
65421;DHT22;52028;50.658;14.004;2022-08-19T07:19:35;23.96;70.83
65421;DHT22;52028;50.658;14.004;2022-08-19T07:22:10;23.75;71.24
65421;DHT22;52028;50.658;14.004;2022-08-19T07:24:37;23.78;71.30
65421;DHT22;52028;50.658;14.004;2022-08-19T07:27:04;23.86;71.06
65421;DHT22;52028;50.658;14.004;2022-08-19T07:29:32;23.90;70.86
65421;DHT22;52028;50.658;14.004;2022-08-19T07:31:59;24.05;70.63
65421;DHT22;52028;50.658;14.004;2022-08-19T07:34:26;24.09;70.46
65421;DHT22;52028;50.658;14.004;2022-08-19T07:36:53;24.14;70.27
65421;DHT22;52028;50.658;14.004;2022-08-19T07:39:31;24.14;70.37
65421;DHT22;52028;50.658;14.004;2022-08-19T07:41:58;24.10;70.47
65421;DHT22;52028;50.658;14.004;2022-08-19T07:44:24;24.02;70.70
65421;DHT22;52028;50.658;14.004;2022-08-19T07:46:54;24.09;70.47
65421;DHT22;52028;50.658;14.004;2022-08-19T07:49:21;24.34;69.86
65421;DHT22;52028;50.658;14.004;2022-08-19T07:51:54;24.40;69.80
65421;DHT22;52028;50.658;14.004;2022-08-19T07:54:21;24.36;70.01
65421;DHT22;52028;50.658;14.004;2022-08-19T07:56:46;24.19;70.18
65421;DHT22;52028;50.658;14.004;2022-08-19T07:59:12;24.23;70.08
65421;DHT22;52028;50.658;14.004;2022-08-19T08:01:38;24.23;69.95
65421;DHT22;52028;50.658;14.004;2022-08-19T08:04:06;24.24;69.96
65421;DHT22;52028;50.658;14.004;2022-08-19T08:06:52;24.27;69.72
65421;DHT22;52028;50.658;14.004;2022-08-19T08:09:38;24.29;69.10
65421;DHT22;52028;50.658;14.004;2022-08-19T08:12:19;24.19;69.44
65421;DHT22;52028;50.658;14.004;2022-08-19T08:14:48;24.17;69.10
65421;DHT22;52028;50.658;14.004;2022-08-19T08:17:16;24.16;69.65
65421;DHT22;52028;50.658;14.004;2022-08-19T08:19:42;24.23;69.70
65421;DHT22;52028;50.658;14.004;2022-08-19T08:22:10;24.30;69.87
65421;DHT22;52028;50.658;14.004;2022-08-19T08:25:16;24.34;69.65
65421;DHT22;52028;50.658;14.004;2022-08-19T08:27:43;24.30;69.45
65421;DHT22;52028;50.658;14.004;2022-08-19T08:30:22;24.30;69.57
65421;DHT22;52028;50.658;14.004;2022-08-19T08:33:07;24.29;69.85
65421;DHT22;52028;50.658;14.004;2022-08-19T08:35:32;24.37;69.50
65421;DHT22;52028;50.658;14.004;2022-08-19T08:37:58;24.41;69.83
65421;DHT22;52028;50.658;14.004;2022-08-19T08:45:28;24.58;68.55
65421;DHT22;52028;50.658;14.004;2022-08-19T08:47:57;24.64;68.13
65421;DHT22;52028;50.658;14.004;2022-08-19T08:50:32;24.79;68.00
65421;DHT22;52028;50.658;14.004;2022-08-19T08:53:01;24.93;66.99
65421;DHT22;52028;50.658;14.004;2022-08-19T08:55:29;24.91;66.83
65421;DHT22;52028;50.658;14.004;2022-08-19T08:58:04;24.88;66.70
65421;DHT22;52028;50.658;14.004;2022-08-19T09:00:33;24.95;66.86
65421;DHT22;52028;50.658;14.004;2022-08-19T09:03:00;24.91;66.41
65421;DHT22;52028;50.658;14.004;2022-08-19T09:08:09;24.96;66.49
65421;DHT22;52028;50.658;14.004;2022-08-19T09:10:55;25.08;66.16
65421;DHT22;52028;50.658;14.004;2022-08-19T09:13:37;25.23;66.37
65421;DHT22;52028;50.658;14.004;2022-08-19T09:16:12;25.28;65.49
65421;DHT22;52028;50.658;14.004;2022-08-19T09:21:09;25.68;63.83
65421;DHT22;52028;50.658;14.004;2022-08-19T09:23:36;25.85;63.03
65421;DHT22;52028;50.658;14.004;2022-08-19T09:26:13;25.90;63.00
65421;DHT22;52028;50.658;14.004;2022-08-19T09:28:40;26.02;62.79
65421;DHT22;52028;50.658;14.004;2022-08-19T09:31:12;25.95;62.52
65421;DHT22;52028;50.658;14.004;2022-08-19T09:33:38;26.06;62.30
65421;DHT22;52028;50.658;14.004;2022-08-19T09:36:09;26.47;61.36
65421;DHT22;52028;50.658;14.004;2022-08-19T09:38:35;26.61;61.03
65421;DHT22;52028;50.658;14.004;2022-08-19T09:41:06;26.68;60.54
65421;DHT22;52028;50.658;14.004;2022-08-19T09:43:32;26.77;60.65
65421;DHT22;52028;50.658;14.004;2022-08-19T09:46:02;27.12;59.57
65421;DHT22;52028;50.658;14.004;2022-08-19T09:48:30;27.43;58.36
65421;DHT22;52028;50.658;14.004;2022-08-19T09:51:05;27.14;59.14
65421;DHT22;52028;50.658;14.004;2022-08-19T09:53:31;27.06;59.53
65421;DHT22;52028;50.658;14.004;2022-08-19T09:55:57;27.17;59.47
65421;DHT22;52028;50.658;14.004;2022-08-19T09:58:22;27.02;59.37
65421;DHT22;52028;50.658;14.004;2022-08-19T10:00:56;26.68;60.00
65421;DHT22;52028;50.658;14.004;2022-08-19T10:03:22;26.75;60.20
65421;DHT22;52028;50.658;14.004;2022-08-19T10:05:48;27.12;58.96
65421;DHT22;52028;50.658;14.004;2022-08-19T10:08:34;26.95;59.28
65421;DHT22;52028;50.658;14.004;2022-08-19T10:11:00;26.78;59.84
65421;DHT22;52028;50.658;14.004;2022-08-19T10:13:28;26.89;59.97
65421;DHT22;52028;50.658;14.004;2022-08-19T10:15:56;26.91;59.46
65421;DHT22;52028;50.658;14.004;2022-08-19T10:18:22;26.89;60.04
65421;DHT22;52028;50.658;14.004;2022-08-19T10:20:49;26.95;59.78
65421;DHT22;52028;50.658;14.004;2022-08-19T10:23:16;27.16;58.86
65421;DHT22;52028;50.658;14.004;2022-08-19T10:25:42;27.29;58.66
65421;DHT22;52028;50.658;14.004;2022-08-19T10:28:08;27.16;58.75
65421;DHT22;52028;50.658;14.004;2022-08-19T10:30:35;27.22;58.97
65421;DHT22;52028;50.658;14.004;2022-08-19T10:33:01;26.89;59.76
65421;DHT22;52028;50.658;14.004;2022-08-19T10:35:26;26.72;60.06
65421;DHT22;52028;50.658;14.004;2022-08-19T10:37:53;26.48;61.03
65421;DHT22;52028;50.658;14.004;2022-08-19T10:40:18;26.50;61.67
65421;DHT22;52028;50.658;14.004;2022-08-19T10:42:44;26.43;62.18
65421;DHT22;52028;50.658;14.004;2022-08-19T10:45:10;26.40;62.02
65421;DHT22;52028;50.658;14.004;2022-08-19T10:47:35;26.13;62.84
65421;DHT22;52028;50.658;14.004;2022-08-19T10:50:02;25.96;63.45
65421;DHT22;52028;50.658;14.004;2022-08-19T10:52:48;25.93;63.36
65421;DHT22;52028;50.658;14.004;2022-08-19T10:55:15;26.00;63.09
65421;DHT22;52028;50.658;14.004;2022-08-19T10:57:58;26.13;62.78
65421;DHT22;52028;50.658;14.004;2022-08-19T11:00:26;26.17;62.68
65421;DHT22;52028;50.658;14.004;2022-08-19T11:02:51;26.17;62.17
65421;DHT22;52028;50.658;14.004;2022-08-19T11:05:18;25.95;61.96
65421;DHT22;52028;50.658;14.004;2022-08-19T11:07:44;25.82;62.46
65421;DHT22;52028;50.658;14.004;2022-08-19T11:10:11;25.92;62.50
65421;DHT22;52028;50.658;14.004;2022-08-19T11:12:39;25.84;62.77
65421;DHT22;52028;50.658;14.004;2022-08-19T11:15:09;25.88;62.96
65421;DHT22;52028;50.658;14.004;2022-08-19T11:17:39;25.99;62.67
65421;DHT22;52028;50.658;14.004;2022-08-19T11:20:11;26.06;62.01
65421;DHT22;52028;50.658;14.004;2022-08-19T11:22:38;25.99;62.44
65421;DHT22;52028;50.658;14.004;2022-08-19T11:25:04;25.96;62.48
65421;DHT22;52028;50.658;14.004;2022-08-19T11:27:29;26.06;62.09
65421;DHT22;52028;50.658;14.004;2022-08-19T11:29:55;26.00;61.98
65421;DHT22;52028;50.658;14.004;2022-08-19T11:32:20;26.23;61.55
65421;DHT22;52028;50.658;14.004;2022-08-19T11:34:46;26.23;61.42
65421;DHT22;52028;50.658;14.004;2022-08-19T11:37:11;26.48;61.40
65421;DHT22;52028;50.658;14.004;2022-08-19T11:39:37;26.60;60.67
65421;DHT22;52028;50.658;14.004;2022-08-19T11:42:04;26.58;60.44
65421;DHT22;52028;50.658;14.004;2022-08-19T11:44:50;26.44;60.99
65421;DHT22;52028;50.658;14.004;2022-08-19T11:47:16;26.37;61.05
65421;DHT22;52028;50.658;14.004;2022-08-19T11:49:41;26.34;61.50
65421;DHT22;52028;50.658;14.004;2022-08-19T11:52:10;26.37;61.19
65421;DHT22;52028;50.658;14.004;2022-08-19T11:54:36;26.33;61.25
65421;DHT22;52028;50.658;14.004;2022-08-19T11:57:05;26.26;61.30
65421;DHT22;52028;50.658;14.004;2022-08-19T11:59:30;26.43;61.19
65421;DHT22;52028;50.658;14.004;2022-08-19T12:01:56;26.45;60.76
65421;DHT22;52028;50.658;14.004;2022-08-19T12:04:23;26.48;60.51
65421;DHT22;52028;50.658;14.004;2022-08-19T12:06:48;26.47;60.34
65421;DHT22;52028;50.658;14.004;2022-08-19T12:09:15;26.61;60.40
65421;DHT22;52028;50.658;14.004;2022-08-19T12:11:42;26.64;60.38
65421;DHT22;52028;50.658;14.004;2022-08-19T12:14:11;26.67;59.99
65421;DHT22;52028;50.658;14.004;2022-08-19T12:16:37;26.67;60.41
65421;DHT22;52028;50.658;14.004;2022-08-19T12:19:04;26.78;59.85
65421;DHT22;52028;50.658;14.004;2022-08-19T12:21:31;26.79;60.02
65421;DHT22;52028;50.658;14.004;2022-08-19T12:23:58;26.92;59.30
65421;DHT22;52028;50.658;14.004;2022-08-19T12:26:26;26.81;59.86
65421;DHT22;52028;50.658;14.004;2022-08-19T12:28:51;26.62;60.24
65421;DHT22;52028;50.658;14.004;2022-08-19T12:31:17;26.52;60.31
65421;DHT22;52028;50.658;14.004;2022-08-19T12:33:45;26.69;60.36
65421;DHT22;52028;50.658;14.004;2022-08-19T12:36:12;26.62;60.13
65421;DHT22;52028;50.658;14.004;2022-08-19T12:38:39;26.50;60.43
65421;DHT22;52028;50.658;14.004;2022-08-19T12:41:05;26.58;60.40
65421;DHT22;52028;50.658;14.004;2022-08-19T12:43:31;26.64;60.35
65421;DHT22;52028;50.658;14.004;2022-08-19T12:45:57;26.81;59.89
65421;DHT22;52028;50.658;14.004;2022-08-19T12:48:22;26.84;59.55
65421;DHT22;52028;50.658;14.004;2022-08-19T12:50:48;26.91;59.24
65421;DHT22;52028;50.658;14.004;2022-08-19T12:53:14;27.14;58.50
65421;DHT22;52028;50.658;14.004;2022-08-19T12:55:40;27.26;58.34
65421;DHT22;52028;50.658;14.004;2022-08-19T12:58:06;27.23;58.08
65421;DHT22;52028;50.658;14.004;2022-08-19T13:00:31;27.58;57.31
65421;DHT22;52028;50.658;14.004;2022-08-19T13:02:58;28.08;55.89
65421;DHT22;52028;50.658;14.004;2022-08-19T13:05:26;28.54;54.40
65421;DHT22;52028;50.658;14.004;2022-08-19T13:07:54;29.29;52.32
65421;DHT22;52028;50.658;14.004;2022-08-19T13:10:24;30.04;50.67
65421;DHT22;52028;50.658;14.004;2022-08-19T13:12:51;30.13;49.70
65421;DHT22;52028;50.658;14.004;2022-08-19T13:15:18;31.77;46.63
65421;DHT22;52028;50.658;14.004;2022-08-19T13:17:48;32.67;44.50
65421;DHT22;52028;50.658;14.004;2022-08-19T13:20:16;34.00;42.10
65421;DHT22;52028;50.658;14.004;2022-08-19T13:22:41;34.22;40.20
65421;DHT22;52028;50.658;14.004;2022-08-19T13:25:08;33.25;42.15
65421;DHT22;52028;50.658;14.004;2022-08-19T13:27:34;32.41;43.72
65421;DHT22;52028;50.658;14.004;2022-08-19T13:30:00;32.26;44.07
65421;DHT22;52028;50.658;14.004;2022-08-19T13:32:44;32.09;44.23
65421;DHT22;52028;50.658;14.004;2022-08-19T13:35:28;31.75;45.00
65421;DHT22;52028;50.658;14.004;2022-08-19T13:37:53;31.82;45.05
65421;DHT22;52028;50.658;14.004;2022-08-19T13:40:22;31.85;45.26
65421;DHT22;52028;50.658;14.004;2022-08-19T13:42:50;31.40;45.90
65421;DHT22;52028;50.658;14.004;2022-08-19T13:45:19;30.99;47.13
65421;DHT22;52028;50.658;14.004;2022-08-19T13:47:46;31.30;46.37
65421;DHT22;52028;50.658;14.004;2022-08-19T13:50:14;31.11;47.04
65421;DHT22;52028;50.658;14.004;2022-08-19T13:52:39;31.39;46.58
65421;DHT22;52028;50.658;14.004;2022-08-19T13:55:06;31.18;47.11
65421;DHT22;52028;50.658;14.004;2022-08-19T13:57:32;31.22;47.07
65421;DHT22;52028;50.658;14.004;2022-08-19T13:59:58;30.51;48.81
65421;DHT22;52028;50.658;14.004;2022-08-19T14:02:25;30.34;49.35
65421;DHT22;52028;50.658;14.004;2022-08-19T14:04:51;30.04;50.32
65421;DHT22;52028;50.658;14.004;2022-08-19T14:07:17;29.36;52.21
65421;DHT22;52028;50.658;14.004;2022-08-19T14:09:42;28.91;53.21
65421;DHT22;52028;50.658;14.004;2022-08-19T14:12:07;28.69;53.61
65421;DHT22;52028;50.658;14.004;2022-08-19T14:14:37;28.35;54.45
65421;DHT22;52028;50.658;14.004;2022-08-19T14:17:06;28.35;54.79
65421;DHT22;52028;50.658;14.004;2022-08-19T14:19:32;28.43;54.64
65421;DHT22;52028;50.658;14.004;2022-08-19T14:21:57;28.43;54.98
65421;DHT22;52028;50.658;14.004;2022-08-19T14:24:23;28.27;55.43
65421;DHT22;52028;50.658;14.004;2022-08-19T14:26:48;28.09;55.76
65421;DHT22;52028;50.658;14.004;2022-08-19T14:29:13;27.99;55.99
65421;DHT22;52028;50.658;14.004;2022-08-19T14:31:39;27.81;56.79
65421;DHT22;52028;50.658;14.004;2022-08-19T14:34:07;27.88;56.60
65421;DHT22;52028;50.658;14.004;2022-08-19T14:36:32;27.75;56.99
65421;DHT22;52028;50.658;14.004;2022-08-19T14:38:59;27.59;57.24
65421;DHT22;52028;50.658;14.004;2022-08-19T14:41:26;27.41;57.71
65421;DHT22;52028;50.658;14.004;2022-08-19T14:43:53;27.36;58.01
65421;DHT22;52028;50.658;14.004;2022-08-19T14:46:23;27.29;58.41
65421;DHT22;52028;50.658;14.004;2022-08-19T14:48:50;27.29;58.72
65421;DHT22;52028;50.658;14.004;2022-08-19T14:51:16;27.46;58.21
65421;DHT22;52028;50.658;14.004;2022-08-19T14:53:42;27.48;58.20
65421;DHT22;52028;50.658;14.004;2022-08-19T14:56:13;27.24;58.99
65421;DHT22;52028;50.658;14.004;2022-08-19T14:58:43;27.23;59.21
65421;DHT22;52028;50.658;14.004;2022-08-19T15:01:10;27.30;58.99
65421;DHT22;52028;50.658;14.004;2022-08-19T15:03:36;27.61;58.26
65421;DHT22;52028;50.658;14.004;2022-08-19T15:06:03;29.60;53.45
65421;DHT22;52028;50.658;14.004;2022-08-19T15:08:31;31.46;49.10
65421;DHT22;52028;50.658;14.004;2022-08-19T15:10:58;32.39;46.02
65421;DHT22;52028;50.658;14.004;2022-08-19T15:13:25;32.53;45.33
65421;DHT22;52028;50.658;14.004;2022-08-19T15:15:51;32.34;45.61
65421;DHT22;52028;50.658;14.004;2022-08-19T15:18:17;32.63;44.98
65421;DHT22;52028;50.658;14.004;2022-08-19T15:20:43;33.91;42.67
65421;DHT22;52028;50.658;14.004;2022-08-19T15:23:09;33.58;42.80
65421;DHT22;52028;50.658;14.004;2022-08-19T15:25:36;33.42;43.39
65421;DHT22;52028;50.658;14.004;2022-08-19T15:28:01;33.15;43.73
65421;DHT22;52028;50.658;14.004;2022-08-19T15:30:28;33.29;43.10
65421;DHT22;52028;50.658;14.004;2022-08-19T15:32:56;33.36;43.19